ěÝzenÝ letovÚho provozu ╚eskÚ republiky
Letiste: LKLN Aktualizace: 21.01.2020 23:25:27  UTC
 METAR LKLN 21.01. 23:30 ...
METAR LKLN 212330Z AUTO 18003KT 140V220 5000 BR OVC004 M03/M03 Q1037=